Time;durP1;ratioP1;P1;durP2;ratioP2;P2;SDS_P1;SDS_P2;PMS_P1;PMS_P2;Temp;Humidity;BMP_temperature;BMP_pressure;BME280_temperature;BME280_humidity;BME280_pressure;Samples;Min_cycle;Max_cycle;Signal;HPM_P1;HPM_P2
2023/02/01 00:00:29;;;;;;;25.45;4.78;;;;;;;6.29;73.16;99899.41;5052255;28;20140;-79
2023/02/01 00:02:55;;;;;;;21.02;4.32;;;;;;;6.33;73.08;99902.75;5052319;28;20055;-79
2023/02/01 00:05:22;;;;;;;21.83;4.32;;;;;;;6.32;73.03;99917.56;5052436;28;20056;-79
2023/02/01 00:07:49;;;;;;;17.50;3.95;;;;;;;6.33;73.12;99906.22;5052292;28;20056;-79
2023/02/01 00:10:16;;;;;;;15.18;3.72;;;;;;;6.35;72.98;99908.75;5052496;28;20089;-79
2023/02/01 00:12:43;;;;;;;24.25;4.13;;;;;;;6.36;72.91;99913.94;5052220;28;20057;-80
2023/02/01 00:15:10;;;;;;;23.55;4.82;;;;;;;6.37;72.83;99905.19;5052204;28;20640;-79
2023/02/01 00:17:37;;;;;;;20.33;4.40;;;;;;;6.38;72.93;99900.81;5052285;28;20060;-79
2023/02/01 00:20:04;;;;;;;19.33;3.67;;;;;;;6.38;72.63;99893.81;5052415;28;20130;-79
2023/02/01 00:22:30;;;;;;;22.58;4.40;;;;;;;6.40;72.79;99888.53;5051950;28;20457;-79
2023/02/01 00:24:57;;;;;;;22.23;3.75;;;;;;;6.41;72.76;99874.56;5052137;28;20044;-79
2023/02/01 00:27:23;;;;;;;21.98;3.95;;;;;;;6.42;72.94;99867.56;5051777;28;20417;-79
2023/02/01 00:29:50;;;;;;;18.63;3.35;;;;;;;6.43;72.66;99882.34;5052056;28;20523;-79
2023/02/01 00:32:16;;;;;;;21.00;3.78;;;;;;;6.44;72.45;99876.19;5034045;28;20049;-79
2023/02/01 00:34:43;;;;;;;20.75;4.40;;;;;;;6.44;72.60;99873.59;5052094;28;20098;-79
2023/02/01 00:37:09;;;;;;;27.23;4.78;;;;;;;6.44;72.83;99877.06;5051695;28;20549;-80
2023/02/01 00:39:36;;;;;;;22.55;4.25;;;;;;;6.45;72.95;99864.81;5051940;28;20049;-79
2023/02/01 00:42:03;;;;;;;27.60;4.72;;;;;;;6.46;72.41;99866.50;5051802;28;20056;-79
2023/02/01 00:44:32;;;;;;;17.45;3.72;;;;;;;6.45;72.43;99856.97;5051623;28;20427;-79
2023/02/01 00:47:00;;;;;;;18.90;4.28;;;;;;;6.46;72.57;99866.50;5051646;28;20057;-79
2023/02/01 00:49:28;;;;;;;21.52;4.35;;;;;;;6.46;72.40;99856.06;5033260;28;20060;-79
2023/02/01 00:51:54;;;;;;;17.83;3.92;;;;;;;6.47;72.47;99857.78;5051608;28;20045;-79
2023/02/01 00:54:21;;;;;;;22.60;3.88;;;;;;;6.46;72.43;99850.81;5051628;28;20045;-79
2023/02/01 00:56:48;;;;;;;15.82;3.97;;;;;;;6.47;72.44;99853.38;5051367;28;20052;-79
2023/02/01 00:59:14;;;;;;;19.60;4.57;;;;;;;6.48;72.00;99851.63;5051546;28;20414;-79
2023/02/01 01:01:41;;;;;;;18.17;4.03;;;;;;;6.48;72.18;99854.25;5051788;28;20055;-79
2023/02/01 01:04:07;;;;;;;16.92;4.43;;;;;;;6.47;72.11;99861.22;5051580;28;20049;-79
2023/02/01 01:06:34;;;;;;;19.77;4.22;;;;;;;6.48;72.28;99859.47;5051251;28;20044;-79
2023/02/01 01:09:04;;;;;;;26.13;3.65;;;;;;;6.48;71.55;99859.47;5051286;28;20045;-79
2023/02/01 01:11:34;;;;;;;23.98;4.50;;;;;;;6.48;71.68;99862.09;5051315;28;20087;-79
2023/02/01 01:14:01;;;;;;;14.25;4.07;;;;;;;6.47;72.17;99861.22;5051302;28;20124;-79
2023/02/01 01:16:29;;;;;;;20.35;4.80;;;;;;;6.49;71.93;99876.88;5051070;28;20056;-79
2023/02/01 01:18:56;;;;;;;15.88;3.88;;;;;;;6.47;71.99;99869.06;5033515;28;20091;-79
2023/02/01 01:21:23;;;;;;;18.45;3.40;;;;;;;6.47;71.68;99873.47;5051139;28;20489;-79
2023/02/01 01:23:50;;;;;;;19.15;3.60;;;;;;;6.44;71.74;99877.06;5051036;28;20049;-80
2023/02/01 01:26:20;;;;;;;15.35;3.22;;;;;;;6.43;71.30;99877.13;5050801;28;20063;-79
2023/02/01 01:28:47;;;;;;;23.60;4.50;;;;;;;6.43;71.77;99879.72;5050867;28;20057;-79
2023/02/01 01:31:15;;;;;;;20.23;3.40;;;;;;;6.42;71.72;99864.97;5051087;28;20049;-79
2023/02/01 01:33:43;;;;;;;20.45;3.40;;;;;;;6.43;71.67;99866.66;5049763;28;20055;-79
2023/02/01 01:36:11;;;;;;;20.98;3.65;;;;;;;6.43;71.58;99848.34;5050736;28;20559;-79
2023/02/01 01:38:40;;;;;;;19.02;4.30;;;;;;;6.43;72.01;99858.81;5050613;28;20064;-79
2023/02/01 01:41:07;;;;;;;19.88;4.25;;;;;;;6.43;71.63;99849.19;5050663;28;20493;-79
2023/02/01 01:43:52;;;;;;;33.03;4.47;;;;;;;6.39;69.88;99852.81;5050459;28;20061;-79
2023/02/01 01:46:22;;;;;;;17.77;3.78;;;;;;;6.42;71.55;99844.03;5050608;28;20055;-79
2023/02/01 01:49:07;;;;;;;24.17;4.55;;;;;;;6.39;70.15;99840.63;5047500;28;20504;-79
2023/02/01 01:51:39;;;;;;;15.25;3.95;;;;;;;6.41;70.76;99832.72;5050121;28;20045;-79
2023/02/01 01:54:34;;;;;;;21.23;4.07;;;;;;;6.39;69.61;99824.94;5050648;28;20057;-79
2023/02/01 01:57:33;;;;;;;17.02;4.10;;;;;;;6.42;69.84;99825.72;5050366;28;20489;-79
2023/02/01 02:00:07;;;;;;;28.70;4.72;;;;;;;6.46;70.89;99827.28;5050568;28;20461;-79
2023/02/01 02:02:35;;;;;;;19.63;3.75;;;;;;;6.46;71.69;99822.94;5050512;28;20088;-79
2023/02/01 02:05:03;;;;;;;20.88;3.58;;;;;;;6.48;72.05;99812.41;5032637;28;20115;-79
2023/02/01 02:07:33;;;;;;;20.77;4.30;;;;;;;6.48;71.73;99812.41;5050371;28;20120;-79
2023/02/01 02:10:01;;;;;;;18.80;3.78;;;;;;;6.50;72.22;99810.56;5050304;28;20059;-79
2023/02/01 02:12:28;;;;;;;23.20;4.15;;;;;;;6.51;71.93;99801.84;5050485;28;20053;-79
2023/02/01 02:14:55;;;;;;;21.25;3.85;;;;;;;6.53;72.01;99800.00;5050063;28;20486;-79
2023/02/01 02:17:30;;;;;;;18.77;4.22;;;;;;;6.52;71.16;99787.84;5050343;28;20152;-79
2023/02/01 02:20:52;;;;;;;18.58;3.95;;;;;;;6.52;69.94;99793.06;5050322;28;20059;-79
2023/02/01 02:23:36;;;;;;;15.30;3.15;;;;;;;6.56;70.91;99792.03;4988575;28;20479;-79
2023/02/01 02:26:14;;;;;;;25.13;4.15;;;;;;;6.58;70.04;99781.53;5050044;28;20048;-79
2023/02/01 02:29:05;;;;;;;22.95;4.70;;;;;;;6.59;68.44;99768.38;5050051;28;20049;-79
2023/02/01 02:32:09;;;;;;;22.02;4.32;;;;;;;6.61;69.39;99773.53;5050263;28;20444;-79
2023/02/01 02:34:49;;;;;;;19.40;4.18;;;;;;;6.64;70.20;99774.28;5050225;28;20581;-79
2023/02/01 02:37:35;;;;;;;21.98;4.53;;;;;;;6.68;70.30;99767.16;5050228;28;20052;-79
2023/02/01 02:40:14;;;;;;;25.63;5.22;;;;;;;6.69;69.36;99753.16;5050286;28;20045;-79
2023/02/01 02:48:40;;;;;;;26.08;4.25;;;;;;;6.76;69.96;99764.22;5049709;28;20518;-79
2023/02/01 03:05:18;;;;;;;23.02;4.93;;;;;;;6.76;71.65;99757.22;5049968;28;20057;-79
2023/02/01 03:08:03;;;;;;;23.08;4.47;;;;;;;6.74;69.73;99752.97;5049703;28;20145;-80
2023/02/01 03:11:08;;;;;;;20.38;3.40;;;;;;;6.76;69.77;99743.28;5049725;28;20425;-79
2023/02/01 03:13:57;;;;;;;22.30;4.03;;;;;;;6.77;68.79;99731.94;5031769;28;20060;-79
2023/02/01 03:16:42;;;;;;;19.75;3.92;;;;;;;6.78;69.75;99723.16;5033464;28;20068;-79
2023/02/01 03:19:21;;;;;;;17.67;3.95;;;;;;;6.81;70.57;99717.81;5033708;28;20514;-79
2023/02/01 03:21:53;;;;;;;18.73;3.72;;;;;;;6.83;70.99;99712.47;5015977;28;20053;-79
2023/02/01 03:24:37;;;;;;;21.35;3.72;;;;;;;6.86;70.92;99720.22;5016051;28;20049;-80
2023/02/01 03:27:35;;;;;;;19.05;3.53;;;;;;;6.82;69.97;99716.00;5033064;28;20041;-79
2023/02/01 03:30:17;;;;;;;13.45;3.03;;;;;;;6.86;70.46;99712.34;5033216;28;20054;-79
2023/02/01 03:32:59;;;;;;;22.40;3.87;;;;;;;6.89;71.21;99713.06;5033387;28;20406;-79
2023/02/01 03:35:37;;;;;;;15.57;3.58;;;;;;;6.89;70.65;99712.22;5033038;28;20339;-79
2023/02/01 03:38:07;;;;;;;15.98;3.70;;;;;;;6.91;70.36;99706.03;5033134;28;20103;-79
2023/02/01 03:40:36;;;;;;;18.00;4.43;;;;;;;6.91;70.72;99708.63;5033334;28;20100;-79
2023/02/01 03:43:07;;;;;;;17.77;3.42;;;;;;;6.94;71.02;99714.63;5032912;28;20081;-79
2023/02/01 03:45:40;;;;;;;19.17;3.90;;;;;;;6.94;71.21;99706.78;5032965;28;20052;-79
2023/02/01 03:48:08;;;;;;;29.17;4.05;;;;;;;6.95;71.07;99698.03;5032731;28;20053;-79
2023/02/01 03:50:38;;;;;;;25.13;4.75;;;;;;;6.94;70.90;99701.56;5033285;28;20141;-79
2023/02/01 03:53:14;;;;;;;24.05;4.43;;;;;;;6.93;70.49;99700.72;5033035;28;20053;-79
2023/02/01 03:55:42;;;;;;;22.80;4.20;;;;;;;6.96;71.40;99715.44;5015250;28;20054;-79
2023/02/01 03:58:13;;;;;;;20.10;3.80;;;;;;;6.95;71.73;99708.50;5032574;28;20433;-79
2023/02/01 04:00:40;;;;;;;24.20;4.47;;;;;;;6.94;71.64;99706.78;5033010;28;20085;-79
2023/02/01 04:03:07;;;;;;;19.25;3.67;;;;;;;6.91;71.60;99690.31;5032756;28;20053;-79
2023/02/01 04:05:34;;;;;;;20.25;3.90;;;;;;;6.88;71.57;99698.28;5032525;28;20513;-79
2023/02/01 04:08:00;;;;;;;16.25;3.22;;;;;;;6.86;71.80;99696.66;5032450;28;20111;-79
2023/02/01 04:10:27;;;;;;;23.90;4.38;;;;;;;6.83;71.84;99688.94;5032482;28;20418;-79
2023/02/01 04:12:54;;;;;;;30.73;5.15;;;;;;;6.81;71.96;99699.50;5032527;28;20049;-79
2023/02/01 04:15:20;;;;;;;20.60;4.63;;;;;;;6.76;71.74;99697.06;5032504;28;20469;-79
2023/02/01 04:17:47;;;;;;;17.80;4.25;;;;;;;6.76;71.80;99696.19;5032600;28;20067;-79
2023/02/01 04:20:13;;;;;;;27.75;4.47;;;;;;;6.72;72.08;99690.25;5032447;28;20053;-79
2023/02/01 04:22:40;;;;;;;17.25;3.28;;;;;;;6.71;72.40;99691.16;5032399;28;20128;-79
2023/02/01 04:25:07;;;;;;;18.05;3.67;;;;;;;6.71;72.36;99690.31;5032076;28;20062;-79
2023/02/01 04:27:35;;;;;;;17.50;4.10;;;;;;;6.69;72.42;99685.13;5032073;28;20466;-79
2023/02/01 04:30:02;;;;;;;15.63;3.40;;;;;;;6.67;72.48;99693.97;5032199;28;20137;-79
2023/02/01 04:32:29;;;;;;;27.10;4.75;;;;;;;6.65;72.52;99683.56;5032373;28;20057;-79
2023/02/01 04:34:55;;;;;;;15.98;4.00;;;;;;;6.65;72.60;99694.88;5032005;28;20053;-79
2023/02/01 04:37:22;;;;;;;18.00;3.45;;;;;;;6.64;72.68;99674.88;5032324;28;20128;-79
2023/02/01 04:39:49;;;;;;;24.20;4.45;;;;;;;6.62;72.91;99671.47;5031951;28;20486;-79
2023/02/01 04:42:15;;;;;;;21.48;4.03;;;;;;;6.60;72.75;99675.94;5014301;28;20570;-79
2023/02/01 04:44:42;;;;;;;22.27;4.05;;;;;;;6.61;72.71;99671.53;5031701;28;20055;-79
2023/02/01 04:47:09;;;;;;;22.80;4.05;;;;;;;6.62;72.72;99678.47;5031626;28;20520;-79
2023/02/01 04:49:36;;;;;;;22.92;3.72;;;;;;;6.60;73.05;99670.69;5031683;28;20063;-79
2023/02/01 04:52:02;;;;;;;20.30;3.75;;;;;;;6.60;73.21;99681.16;4153057;22;20627;-80
2023/02/01 04:54:29;;;;;;;15.60;3.90;;;;;;;6.60;73.23;99689.00;5050409;28;20060;-79
2023/02/01 04:56:55;;;;;;;16.55;3.45;;;;;;;6.59;73.07;99684.69;5051276;28;20049;-81
2023/02/01 04:59:22;;;;;;;18.95;3.72;;;;;;;6.59;73.15;99676.84;5052017;28;20053;-80
2023/02/01 05:01:48;;;;;;;17.58;4.07;;;;;;;6.58;73.14;99659.44;5051681;28;20060;-81
2023/02/01 05:04:15;;;;;;;25.05;3.92;;;;;;;6.55;73.16;99662.19;5051763;28;20067;-80
2023/02/01 05:06:41;;;;;;;18.88;3.67;;;;;;;6.56;73.25;99660.41;5051448;28;20059;-82
2023/02/01 05:09:07;;;;;;;25.73;4.57;;;;;;;6.55;73.56;99653.50;5050481;28;20041;-82
2023/02/01 05:14:19;;;;;;;16.63;3.90;;;;;;;6.54;73.67;99657.84;5051530;28;20174;-81
2023/02/01 05:16:48;;;;;;;23.40;3.70;;;;;;;6.51;73.42;99652.78;5051143;28;20098;-78
2023/02/01 05:19:14;;;;;;;15.05;3.08;;;;;;;6.51;73.94;99648.38;5051328;28;20497;-82
2023/02/01 05:21:41;;;;;;;21.67;4.57;;;;;;;6.48;73.78;99655.50;5051123;28;20551;-81
2023/02/01 05:24:19;;;;;;;19.27;3.25;;;;;;;6.47;73.85;99648.59;5051137;28;20107;-80
2023/02/01 05:26:46;;;;;;;20.00;4.20;;;;;;;6.47;73.99;99643.34;5049791;28;20052;-79
2023/02/01 05:29:14;;;;;;;25.23;4.60;;;;;;;6.47;73.76;99648.59;5049787;28;20374;-80
2023/02/01 05:31:41;;;;;;;21.63;3.55;;;;;;;6.46;74.10;99644.25;5051256;28;20045;-80
2023/02/01 05:34:07;;;;;;;19.83;3.75;;;;;;;6.47;74.28;99648.59;5050928;28;20053;-82
2023/02/01 05:36:34;;;;;;;18.67;3.83;;;;;;;6.47;74.33;99641.56;5050548;28;20049;-80
2023/02/01 05:39:00;;;;;;;24.08;3.85;;;;;;;6.48;74.20;99637.22;5051348;28;20547;-81
2023/02/01 05:41:26;;;;;;;18.67;3.83;;;;;;;6.50;74.40;99653.66;5051020;28;20041;-78
2023/02/01 05:43:53;;;;;;;19.98;3.40;;;;;;;6.50;74.50;99649.31;5051048;28;20590;-79
2023/02/01 05:46:20;;;;;;;22.45;4.38;;;;;;;6.50;74.49;99627.53;5049414;28;20049;-82
2023/02/01 05:48:46;;;;;;;22.05;4.28;;;;;;;6.50;74.65;99625.75;5050581;28;20513;-79
2023/02/01 05:51:13;;;;;;;25.65;4.40;;;;;;;6.51;74.37;99618.78;5050011;28;20049;-79
2023/02/01 05:53:39;;;;;;;21.55;4.22;;;;;;;6.54;74.70;99620.41;5051128;28;20270;-80
2023/02/01 05:56:06;;;;;;;20.83;4.00;;;;;;;6.54;74.41;99625.66;5050780;28;20053;-81
2023/02/01 05:58:33;;;;;;;22.80;4.40;;;;;;;6.55;74.78;99630.81;5048758;28;20052;-81
2023/02/01 06:01:00;;;;;;;18.17;3.80;;;;;;;6.55;74.86;99646.50;5050316;28;20053;-81
2023/02/01 06:03:45;;;;;;;21.58;3.88;;;;;;;6.54;73.82;99650.00;5048691;28;20088;-82
2023/02/01 06:06:12;;;;;;;21.20;4.35;;;;;;;6.61;74.91;99648.84;5049885;28;20059;-81
2023/02/01 06:08:40;;;;;;;20.88;3.53;;;;;;;6.63;74.75;99652.25;5050583;28;20072;-81
2023/02/01 06:11:06;;;;;;;20.70;3.50;;;;;;;6.65;74.81;99660.03;5050028;28;20041;-80
2023/02/01 06:13:33;;;;;;;14.50;3.42;;;;;;;6.68;75.16;99659.91;5050173;28;20063;-81
2023/02/01 06:16:02;;;;;;;19.27;4.15;;;;;;;6.71;75.02;99677.22;5049780;28;20080;-81
2023/02/01 06:18:30;;;;;;;15.02;2.83;;;;;;;6.74;75.11;99674.50;5049195;28;20123;-81
2023/02/01 06:21:23;;;;;;;18.95;4.05;;;;;;;6.75;74.32;99673.56;5049292;28;20064;-83
2023/02/01 06:23:51;;;;;;;;;;;;;;;6.81;72.90;99677.69;5044828;28;20092;-81
2023/02/01 06:26:17;;;;;;;16.63;3.35;;;;;;;6.85;74.25;99685.34;5049648;28;19924;-81
2023/02/01 06:28:44;;;;;;;22.98;4.70;;;;;;;6.87;74.44;99682.66;5049461;28;20475;-82
2023/02/01 06:31:11;;;;;;;13.90;2.97;;;;;;;6.86;74.61;99676.59;5050124;28;20057;-82
2023/02/01 06:33:39;;;;;;;13.95;3.33;;;;;;;6.87;74.31;99683.50;5049337;28;20063;-81
2023/02/01 06:36:07;;;;;;;21.20;3.63;;;;;;;6.90;74.34;99679.91;5049934;28;20064;-80
2023/02/01 06:38:34;;;;;;;16.40;3.65;;;;;;;6.92;74.88;99680.72;5048267;28;20420;-81
2023/02/01 06:41:02;;;;;;;16.70;3.30;;;;;;;6.95;74.67;99690.19;5049889;28;20061;-80
2023/02/01 06:43:29;;;;;;;14.45;3.88;;;;;;;6.97;74.72;99683.13;5048515;28;20053;-82
2023/02/01 06:46:04;;;;;;;17.15;3.53;;;;;;;6.99;73.85;99679.50;5049729;28;20544;-81
2023/02/01 06:48:31;;;;;;;19.02;3.78;;;;;;;7.05;74.76;99681.03;5052141;28;20067;-81
2023/02/01 06:50:57;;;;;;;19.50;3.60;;;;;;;7.08;74.62;99680.91;5053890;28;20053;-81
2023/02/01 06:53:24;;;;;;;17.95;3.90;;;;;;;7.13;74.30;99689.38;5054083;28;20053;-81
2023/02/01 06:55:55;;;;;;;16.45;3.63;;;;;;;7.16;74.42;99677.94;5052611;28;20051;-81
2023/02/01 06:58:22;;;;;;;23.13;3.92;;;;;;;7.22;74.25;99684.66;5052678;28;20049;-80
2023/02/01 07:00:48;;;;;;;16.15;3.22;;;;;;;7.24;74.37;99695.91;5053497;28;20067;-78
2023/02/01 07:03:15;;;;;;;13.20;2.85;;;;;;;7.27;74.31;99693.16;5053564;28;20045;-78
2023/02/01 07:05:41;;;;;;;17.38;3.33;;;;;;;7.33;74.17;99702.53;5053575;28;20136;-77
2023/02/01 07:08:08;;;;;;;22.02;3.75;;;;;;;7.34;73.73;99706.81;5053339;28;20145;-79
2023/02/01 07:10:35;;;;;;;17.63;3.90;;;;;;;7.37;73.63;99701.47;5053633;28;20075;-79
2023/02/01 07:13:01;;;;;;;14.13;3.15;;;;;;;7.40;73.77;99702.16;5053578;28;20084;-77
2023/02/01 07:15:28;;;;;;;19.55;3.88;;;;;;;7.43;73.76;99702.03;5053534;28;20049;-77
2023/02/01 07:17:55;;;;;;;16.00;3.10;;;;;;;7.48;73.68;99695.75;5067957;28;20748;-78
2023/02/01 07:20:22;;;;;;;15.75;3.33;;;;;;;7.49;73.27;99695.69;5052873;28;20076;-78
2023/02/01 07:22:54;;;;;;;17.60;3.35;;;;;;;7.50;72.10;99702.63;5052831;28;20060;-80
2023/02/01 07:25:21;;;;;;;16.60;3.20;;;;;;;7.55;73.10;99700.63;5053016;28;20061;-80
2023/02/01 07:27:47;;;;;;;14.93;3.38;;;;;;;7.58;73.17;99699.63;5052816;28;20084;-79
2023/02/01 07:30:14;;;;;;;16.02;3.17;;;;;;;7.60;73.51;99710.91;5052695;28;20132;-78
2023/02/01 07:32:40;;;;;;;19.23;3.88;;;;;;;7.61;73.17;99707.38;5052984;28;20049;-81
2023/02/01 07:35:07;;;;;;;13.95;3.17;;;;;;;7.63;73.43;99713.38;5052925;28;20052;-80
2023/02/01 07:37:34;;;;;;;13.48;3.00;;;;;;;7.65;73.16;99722.03;5053241;28;20139;-79
2023/02/01 07:40:01;;;;;;;16.17;3.20;;;;;;;7.67;73.21;99728.03;5053231;28;20144;-79
2023/02/01 07:42:27;;;;;;;18.45;3.88;;;;;;;7.68;73.25;99728.91;5052951;28;20051;-78
2023/02/01 07:44:54;;;;;;;14.25;3.78;;;;;;;7.71;72.87;99725.28;5052926;28;20057;-79
2023/02/01 07:47:20;;;;;;;12.80;3.90;;;;;;;7.72;73.14;99732.22;5052802;28;20088;-78
2023/02/01 07:49:47;;;;;;;18.70;3.33;;;;;;;7.73;72.75;99728.69;5053001;28;20072;-79
2023/02/01 07:52:16;;;;;;;15.60;3.20;;;;;;;7.72;72.67;99738.31;5052916;28;20076;-77
2023/02/01 07:54:43;;;;;;;17.95;3.60;;;;;;;7.74;72.79;99746.94;5052978;28;20110;-78
2023/02/01 07:57:11;;;;;;;11.80;2.90;;;;;;;7.75;72.81;99734.69;5052655;28;20045;-77
2023/02/01 08:01:19;;;;;;;19.48;4.15;;;;;;;7.77;72.45;99743.31;5052500;28;20049;-79
2023/02/01 08:02:24;;;;;;;17.75;3.72;;;;;;;7.79;72.55;99741.50;5052682;28;20057;-78
2023/02/01 08:04:51;;;;;;;18.08;3.25;;;;;;;7.79;72.52;99747.59;5052573;28;20053;-80
2023/02/01 08:07:17;;;;;;;17.55;3.08;;;;;;;7.80;72.22;99745.81;5052576;28;20057;-79
2023/02/01 08:09:44;;;;;;;20.25;3.05;;;;;;;7.80;72.40;99751.06;5052333;28;20461;-78
2023/02/01 08:12:10;;;;;;;14.80;3.33;;;;;;;7.81;72.37;99742.28;5052423;28;20152;-78
2023/02/01 08:14:37;;;;;;;13.38;3.83;;;;;;;7.81;71.82;99734.41;5052226;28;20049;-77
2023/02/01 08:17:03;;;;;;;16.55;3.17;;;;;;;7.83;71.89;99740.44;5052292;28;20088;-81
2023/02/01 08:19:30;;;;;;;18.10;3.45;;;;;;;7.83;71.89;99745.69;5052228;28;20123;-78
2023/02/01 08:21:56;;;;;;;11.88;2.97;;;;;;;7.84;72.38;99738.69;5052145;28;20502;-78
2023/02/01 08:24:23;;;;;;;19.35;3.75;;;;;;;7.84;72.21;99743.94;5052138;28;20041;-77
2023/02/01 08:26:49;;;;;;;10.85;3.38;;;;;;;7.85;72.45;99743.00;5050747;28;20049;-78
2023/02/01 08:29:16;;;;;;;17.38;3.42;;;;;;;7.85;72.20;99737.75;5051895;28;20513;-81
2023/02/01 08:31:43;;;;;;;21.77;4.05;;;;;;;7.84;71.75;99742.13;5052218;28;20445;-79
2023/02/01 08:34:11;;;;;;;16.30;3.35;;;;;;;7.87;71.98;99747.25;5050935;28;20106;-80
2023/02/01 08:36:38;;;;;;;15.40;3.38;;;;;;;7.89;72.12;99753.25;5050498;28;20067;-80
2023/02/01 08:39:08;;;;;;;18.10;3.25;;;;;;;7.90;71.94;99749.75;5051975;28;20072;-82
2023/02/01 08:41:35;;;;;;;15.20;3.42;;;;;;;7.92;71.99;99753.13;5051943;28;20060;-79
2023/02/01 08:44:01;;;;;;;19.52;4.55;;;;;;;7.94;71.83;99748.69;5052049;28;20144;-78
2023/02/01 08:46:28;;;;;;;17.73;3.90;;;;;;;7.97;71.66;99759.94;5051959;28;20052;-77
2023/02/01 08:48:55;;;;;;;20.20;4.28;;;;;;;7.97;71.25;99736.34;5051631;28;20707;-81
2023/02/01 08:51:22;;;;;;;18.92;3.58;;;;;;;7.99;71.80;99745.81;5051531;28;20049;-78
2023/02/01 08:53:50;;;;;;;11.10;3.05;;;;;;;7.99;71.80;99740.59;5051673;28;20083;-78
2023/02/01 08:56:18;;;;;;;18.95;3.20;;;;;;;8.01;71.42;99740.50;5051410;28;20049;-79
2023/02/01 08:58:44;;;;;;;17.58;3.33;;;;;;;8.01;71.36;99744.00;5051864;28;20080;-80
2023/02/01 09:01:14;;;;;;;18.13;3.83;;;;;;;8.02;70.38;99750.06;5051618;28;20401;-78
2023/02/01 09:03:41;;;;;;;20.13;3.45;;;;;;;8.04;71.24;99748.25;5051703;28;20060;-77
2023/02/01 09:06:11;;;;;;;22.20;3.75;;;;;;;8.05;70.95;99744.69;5051363;28;20053;-79
2023/02/01 09:08:38;;;;;;;19.13;3.78;;;;;;;8.08;71.32;99752.41;5051258;28;20127;-78
2023/02/01 09:11:08;;;;;;;12.98;2.70;;;;;;;8.12;70.86;99737.38;5050748;28;20081;-79
2023/02/01 09:13:35;;;;;;;17.08;3.63;;;;;;;8.15;71.21;99732.00;5051389;28;20057;-80
2023/02/01 09:16:03;;;;;;;18.35;3.53;;;;;;;8.17;70.89;99733.63;5051072;28;20106;-80
2023/02/01 09:18:29;;;;;;;13.38;3.20;;;;;;;8.19;71.11;99731.78;5049847;28;20382;-79
2023/02/01 09:20:56;;;;;;;13.23;2.97;;;;;;;8.22;70.95;99725.53;5051145;28;20071;-77
2023/02/01 09:23:22;;;;;;;9.48;2.65;;;;;;;8.25;71.14;99724.53;5051239;28;20055;-78
2023/02/01 09:25:51;;;;;;;15.70;3.28;;;;;;;8.27;70.89;99725.31;5050826;28;20495;-78
2023/02/01 09:28:18;;;;;;;18.67;2.90;;;;;;;8.28;70.74;99724.38;5049804;28;20133;-77
2023/02/01 09:30:44;;;;;;;18.17;3.13;;;;;;;8.30;70.74;99718.16;5050825;28;20610;-78
2023/02/01 09:33:12;;;;;;;13.43;3.30;;;;;;;8.31;70.38;99711.13;5050914;28;20053;-78
2023/02/01 09:35:38;;;;;;;14.90;3.00;;;;;;;8.33;70.49;99706.66;5050829;28;20106;-78
2023/02/01 09:38:05;;;;;;;14.90;2.83;;;;;;;8.33;69.69;99715.38;5050652;28;20137;-79
2023/02/01 09:40:35;;;;;;;15.07;3.22;;;;;;;8.35;69.96;99691.72;5050832;28;20723;-78
2023/02/01 09:43:10;;;;;;;16.50;3.13;;;;;;;8.34;68.02;99693.47;5050793;28;20110;-77
2023/02/01 09:46:01;;;;;;;12.02;3.35;;;;;;;8.38;68.58;99695.94;5050456;28;20071;-79
2023/02/01 09:48:32;;;;;;;17.02;2.95;;;;;;;8.43;69.69;99701.81;5050500;28;20793;-79
2023/02/01 09:51:02;;;;;;;16.83;3.30;;;;;;;8.47;70.43;99698.97;5050665;28;20476;-78
2023/02/01 09:53:40;;;;;;;14.73;3.85;;;;;;;8.46;68.67;99702.50;5049359;28;20084;-80
2023/02/01 09:56:14;;;;;;;19.90;3.80;;;;;;;8.49;67.26;99696.28;5050504;28;20110;-80
2023/02/01 09:58:47;;;;;;;17.92;4.25;;;;;;;8.51;69.12;99701.44;5050399;28;20051;-79
2023/02/01 10:01:22;;;;;;;;;;;;;;;8.50;64.07;99703.22;5050990;28;20500;-79
2023/02/01 10:03:50;;;;;;;13.50;3.50;;;;;;;8.58;69.65;99697.63;5050762;28;20023;-78
2023/02/01 10:06:32;;;;;;;19.13;3.72;;;;;;;8.57;68.61;99714.28;5050426;28;20056;-78
2023/02/01 10:09:15;;;;;;;17.27;3.30;;;;;;;8.55;67.21;99710.88;5049274;28;20098;-80
2023/02/01 10:11:57;;;;;;;15.60;3.60;;;;;;;8.56;68.44;99708.19;5050358;28;20501;-79
2023/02/01 10:14:25;;;;;;;14.93;3.20;;;;;;;8.56;68.71;99692.44;5050520;28;20059;-79
2023/02/01 10:17:03;;;;;;;23.42;3.08;;;;;;;8.52;67.86;99696.13;5050033;28;20059;-80
2023/02/01 10:19:48;;;;;;;15.18;3.70;;;;;;;8.51;66.98;99683.06;5050356;28;20513;-79
2023/02/01 10:22:33;;;;;;;13.43;2.97;;;;;;;8.48;66.90;99690.19;5052286;28;20491;-79
2023/02/01 10:25:28;;;;;;;16.48;2.90;;;;;;;8.50;68.07;99682.22;5054548;28;20053;-78
2023/02/01 10:27:59;;;;;;;17.02;2.90;;;;;;;8.50;69.34;99695.34;5054410;28;20098;-78
2023/02/01 10:30:34;;;;;;;13.45;3.65;;;;;;;8.49;69.00;99693.66;5054526;28;20131;-79
2023/02/01 10:33:16;;;;;;;18.23;3.55;;;;;;;8.43;67.19;99697.44;5054823;28;20477;-79
2023/02/01 10:35:44;;;;;;;19.77;3.80;;;;;;;8.45;68.85;99685.06;5054068;28;20076;-79
2023/02/01 10:38:25;;;;;;;14.13;3.40;;;;;;;8.43;65.92;99686.06;5053995;28;20059;-78
2023/02/01 10:40:54;;;;;;;16.55;3.92;;;;;;;8.46;69.25;99662.31;5054288;28;20088;-79
2023/02/01 10:43:21;;;;;;;17.05;3.25;;;;;;;8.46;69.45;99675.44;5054003;28;20080;-79
2023/02/01 10:45:48;;;;;;;10.00;3.47;;;;;;;8.47;69.31;99664.88;5053827;28;20454;-78
2023/02/01 10:48:15;;;;;;;14.80;3.33;;;;;;;8.50;69.65;99663.00;5053871;28;20481;-77
2023/02/01 10:50:58;;;;;;;17.52;3.35;;;;;;;8.45;67.75;99658.84;5053852;28;20057;-78
2023/02/01 10:53:39;;;;;;;;;;;;;;;8.52;66.96;99669.06;5093643;22;20057;-80
2023/02/01 10:56:08;;;;;;;12.85;2.78;;;;;;;8.55;69.15;99655.78;5033779;28;19929;-80
2023/02/01 10:58:37;;;;;;;16.50;3.03;;;;;;;8.54;69.43;99657.56;5033840;28;20130;-80
2023/02/01 11:01:07;;;;;;;14.55;3.42;;;;;;;8.51;68.25;99649.81;5032629;28;20049;-80
2023/02/01 11:03:44;;;;;;;16.25;3.08;;;;;;;8.47;68.09;99643.88;5033822;28;20091;-80
2023/02/01 11:06:39;;;;;;;14.45;3.65;;;;;;;8.43;67.27;99629.22;5015971;28;20083;-80
2023/02/01 11:09:05;;;;;;;15.77;3.20;;;;;;;8.47;69.63;99637.78;5033834;28;20052;-80
2023/02/01 11:11:32;;;;;;;18.67;3.88;;;;;;;8.43;69.47;99628.38;5033747;28;20049;-80
2023/02/01 11:14:10;;;;;;;19.17;3.20;;;;;;;8.37;69.09;99623.44;5033443;28;20054;-80
2023/02/01 11:16:38;;;;;;;13.95;3.67;;;;;;;8.32;69.35;99611.41;5033504;28;20085;-80
2023/02/01 11:19:06;;;;;;;15.85;3.60;;;;;;;8.30;69.71;99617.66;5033685;28;20072;-80
2023/02/01 11:21:34;;;;;;;15.52;3.58;;;;;;;8.24;69.18;99607.47;5033660;28;20060;-80
2023/02/01 11:24:05;;;;;;;15.13;3.22;;;;;;;8.18;69.34;99598.13;5033603;28;20413;-80
2023/02/01 11:26:32;;;;;;;15.35;3.42;;;;;;;8.16;70.17;99610.47;5033380;28;20064;-80
2023/02/01 11:29:04;;;;;;;13.13;3.30;;;;;;;8.08;70.11;99593.34;5033525;28;20092;-80
2023/02/01 11:31:34;;;;;;;14.13;3.15;;;;;;;8.04;70.23;99618.00;5033518;28;20148;-80
2023/02/01 11:34:20;;;;;;;14.13;2.70;;;;;;;7.94;69.84;99606.28;5032823;28;20136;-80
2023/02/01 11:36:49;;;;;;;17.63;3.70;;;;;;;7.90;70.66;99605.59;5032921;28;20508;-80
2023/02/01 11:39:34;;;;;;;14.48;2.70;;;;;;;7.82;70.65;99605.09;5033169;28;20055;-80
2023/02/01 11:42:16;;;;;;;16.35;3.10;;;;;;;7.75;70.65;99588.81;5033372;28;20107;-80
2023/02/01 11:44:45;;;;;;;16.10;2.80;;;;;;;7.71;71.19;99600.38;5015444;28;20053;-80
2023/02/01 11:47:25;;;;;;;12.52;2.35;;;;;;;7.64;71.15;99589.34;5032920;28;20136;-80
2023/02/01 11:49:58;;;;;;;9.48;2.08;;;;;;;7.62;71.38;99583.31;5015545;28;20058;-80
2023/02/01 11:52:33;;;;;;;9.40;2.55;;;;;;;7.60;71.85;99574.69;5033023;28;20054;-80
2023/02/01 11:55:00;;;;;;;12.38;2.75;;;;;;;7.55;71.97;99574.91;5032916;28;20342;-80
2023/02/01 11:57:59;;;;;;;12.90;2.53;;;;;;;7.50;71.83;99586.50;5032759;28;20056;-80
2023/02/01 12:00:36;;;;;;;10.25;2.83;;;;;;;7.53;72.38;99591.59;5032913;28;20731;-80
2023/02/01 12:03:33;;;;;;;11.13;3.60;;;;;;;7.47;71.85;99568.34;5032773;28;20406;-80
2023/02/01 12:06:12;;;;;;;7.22;2.17;;;;;;;7.47;72.40;99592.75;5015071;28;20460;-80
2023/02/01 12:08:51;;;;;;;11.82;2.97;;;;;;;7.46;72.44;99564.00;5032536;28;20052;-80
2023/02/01 12:11:32;;;;;;;11.80;2.50;;;;;;;7.45;73.10;99578.03;5032660;28;20057;-80
2023/02/01 12:14:44;;;;;;;10.18;2.63;;;;;;;7.38;73.36;99574.84;5032530;28;20045;-80